sensor_id;sensor_type;location;lat;lon;timestamp;pressure;altitude;pressure_sealevel;temperature;humidity
74678;BME280;67324;56.326;43.982;2023-01-29T00:01:17;101007.31;;;22.29;29.87
74678;BME280;67324;56.326;43.982;2023-01-29T00:03:43;101005.34;;;22.31;29.62
74678;BME280;67324;56.326;43.982;2023-01-29T00:06:09;101004.53;;;22.30;29.85
74678;BME280;67324;56.326;43.982;2023-01-29T00:08:36;101008.97;;;22.30;29.84
74678;BME280;67324;56.326;43.982;2023-01-29T00:11:03;101001.88;;;22.30;29.99
74678;BME280;67324;56.326;43.982;2023-01-29T00:13:30;100989.69;;;22.29;29.94
74678;BME280;67324;56.326;43.982;2023-01-29T00:15:57;100985.13;;;22.31;29.80
74678;BME280;67324;56.326;43.982;2023-01-29T00:18:24;100981.78;;;22.29;29.90
74678;BME280;67324;56.326;43.982;2023-01-29T00:20:51;100984.44;;;22.29;29.71
74678;BME280;67324;56.326;43.982;2023-01-29T00:23:18;100982.63;;;22.30;29.96
74678;BME280;67324;56.326;43.982;2023-01-29T00:25:44;100985.25;;;22.30;29.92
74678;BME280;67324;56.326;43.982;2023-01-29T00:28:11;100974.72;;;22.30;29.94
74678;BME280;67324;56.326;43.982;2023-01-29T00:30:37;100973.72;;;22.31;29.88
74678;BME280;67324;56.326;43.982;2023-01-29T00:33:03;100965.16;;;22.29;29.87
74678;BME280;67324;56.326;43.982;2023-01-29T00:35:30;100965.00;;;22.30;29.80
74678;BME280;67324;56.326;43.982;2023-01-29T00:37:57;100965.97;;;22.29;29.96
74678;BME280;67324;56.326;43.982;2023-01-29T00:40:24;100957.91;;;22.31;29.86
74678;BME280;67324;56.326;43.982;2023-01-29T00:42:51;100956.13;;;22.31;29.73
74678;BME280;67324;56.326;43.982;2023-01-29T00:45:37;100945.72;;;22.30;29.89
74678;BME280;67324;56.326;43.982;2023-01-29T00:48:05;100951.81;;;22.30;29.88
74678;BME280;67324;56.326;43.982;2023-01-29T00:50:31;100944.72;;;22.31;29.82
74678;BME280;67324;56.326;43.982;2023-01-29T00:52:57;100943.75;;;22.32;29.82
74678;BME280;67324;56.326;43.982;2023-01-29T00:55:23;100939.47;;;22.31;29.82
74678;BME280;67324;56.326;43.982;2023-01-29T00:57:49;100947.38;;;22.31;29.75
74678;BME280;67324;56.326;43.982;2023-01-29T01:00:17;100938.50;;;22.32;29.92
74678;BME280;67324;56.326;43.982;2023-01-29T01:03:01;100929.75;;;22.31;29.90
74678;BME280;67324;56.326;43.982;2023-01-29T01:05:30;100928.91;;;22.31;29.91
74678;BME280;67324;56.326;43.982;2023-01-29T01:07:57;100927.94;;;22.32;29.76
74678;BME280;67324;56.326;43.982;2023-01-29T01:10:27;100921.00;;;22.31;29.92
74678;BME280;67324;56.326;43.982;2023-01-29T01:13:11;100924.63;;;22.30;29.87
74678;BME280;67324;56.326;43.982;2023-01-29T01:15:38;100917.41;;;22.32;29.90
74678;BME280;67324;56.326;43.982;2023-01-29T01:18:04;100921.00;;;22.31;29.87
74678;BME280;67324;56.326;43.982;2023-01-29T01:20:33;100909.66;;;22.30;29.88
74678;BME280;67324;56.326;43.982;2023-01-29T01:22:59;100923.63;;;22.31;29.86
74678;BME280;67324;56.326;43.982;2023-01-29T01:25:26;100913.09;;;22.31;29.97
74678;BME280;67324;56.326;43.982;2023-01-29T01:27:53;100909.50;;;22.32;29.82
74678;BME280;67324;56.326;43.982;2023-01-29T01:30:19;100913.09;;;22.31;29.88
74678;BME280;67324;56.326;43.982;2023-01-29T01:32:45;100913.94;;;22.31;30.00
74678;BME280;67324;56.326;43.982;2023-01-29T01:35:11;100911.31;;;22.31;29.86
74678;BME280;67324;56.326;43.982;2023-01-29T01:37:39;100913.94;;;22.31;30.13
74678;BME280;67324;56.326;43.982;2023-01-29T01:40:09;100912.13;;;22.32;29.93
74678;BME280;67324;56.326;43.982;2023-01-29T01:42:43;100920.88;;;22.32;29.89
74678;BME280;67324;56.326;43.982;2023-01-29T01:45:27;100915.59;;;22.32;29.94
74678;BME280;67324;56.326;43.982;2023-01-29T01:48:10;100911.16;;;22.33;29.92
74678;BME280;67324;56.326;43.982;2023-01-29T01:50:51;100917.56;;;22.30;29.92
74678;BME280;67324;56.326;43.982;2023-01-29T01:53:25;100904.22;;;22.32;30.07
74678;BME280;67324;56.326;43.982;2023-01-29T01:55:57;100905.19;;;22.31;29.93
74678;BME280;67324;56.326;43.982;2023-01-29T01:58:47;100899.09;;;22.30;29.90
74678;BME280;67324;56.326;43.982;2023-01-29T02:01:15;100906.03;;;22.31;29.98
74678;BME280;67324;56.326;43.982;2023-01-29T02:03:46;100912.97;;;22.32;29.99
74678;BME280;67324;56.326;43.982;2023-01-29T02:06:34;100907.81;;;22.31;29.90
74678;BME280;67324;56.326;43.982;2023-01-29T02:09:22;100907.81;;;22.31;29.91
74678;BME280;67324;56.326;43.982;2023-01-29T02:12:05;100897.28;;;22.31;29.95
74678;BME280;67324;56.326;43.982;2023-01-29T02:14:33;100904.22;;;22.32;29.80
74678;BME280;67324;56.326;43.982;2023-01-29T02:17:23;100894.66;;;22.31;29.91
74678;BME280;67324;56.326;43.982;2023-01-29T02:39:35;100862.19;;;22.30;30.00
74678;BME280;67324;56.326;43.982;2023-01-29T02:42:29;100862.06;;;22.32;29.95
74678;BME280;67324;56.326;43.982;2023-01-29T02:45:04;100855.97;;;22.31;29.84
74678;BME280;67324;56.326;43.982;2023-01-29T02:47:45;100855.97;;;22.31;29.92
74678;BME280;67324;56.326;43.982;2023-01-29T02:50:36;100859.44;;;22.32;29.98
74678;BME280;67324;56.326;43.982;2023-01-29T02:53:21;100855.13;;;22.31;30.04
74678;BME280;67324;56.326;43.982;2023-01-29T02:55:58;100850.69;;;22.31;30.00
74678;BME280;67324;56.326;43.982;2023-01-29T02:58:31;100849.72;;;22.32;29.95
74678;BME280;67324;56.326;43.982;2023-01-29T03:01:22;100850.69;;;22.31;29.93
74678;BME280;67324;56.326;43.982;2023-01-29T03:03:59;100842.78;;;22.31;29.87
74678;BME280;67324;56.326;43.982;2023-01-29T03:06:34;100848.75;;;22.33;29.96
74678;BME280;67324;56.326;43.982;2023-01-29T03:09:08;100850.53;;;22.33;29.92
74678;BME280;67324;56.326;43.982;2023-01-29T03:11:40;100846.25;;;22.32;29.95
74678;BME280;67324;56.326;43.982;2023-01-29T03:14:32;100836.53;;;22.32;29.99
74678;BME280;67324;56.326;43.982;2023-01-29T03:17:24;100836.53;;;22.32;30.06
74678;BME280;67324;56.326;43.982;2023-01-29T03:19:51;100839.16;;;22.32;29.99
74678;BME280;67324;56.326;43.982;2023-01-29T03:22:22;100837.34;;;22.33;29.96
74678;BME280;67324;56.326;43.982;2023-01-29T03:24:56;100839.03;;;22.34;29.97
74678;BME280;67324;56.326;43.982;2023-01-29T03:27:51;100831.13;;;22.34;29.98
74678;BME280;67324;56.326;43.982;2023-01-29T03:30:42;100824.19;;;22.33;29.99
74678;BME280;67324;56.326;43.982;2023-01-29T03:33:45;100818.09;;;22.32;29.94
74678;BME280;67324;56.326;43.982;2023-01-29T03:36:17;100814.63;;;22.32;29.97
74678;BME280;67324;56.326;43.982;2023-01-29T03:38:45;100817.13;;;22.33;29.96
74678;BME280;67324;56.326;43.982;2023-01-29T03:44:09;100810.84;;;22.34;29.89
74678;BME280;67324;56.326;43.982;2023-01-29T03:55:01;100810.19;;;22.32;29.91
74678;BME280;67324;56.326;43.982;2023-01-29T03:57:57;100808.22;;;22.34;29.97
74678;BME280;67324;56.326;43.982;2023-01-29T04:01:01;100805.72;;;22.33;29.91
74678;BME280;67324;56.326;43.982;2023-01-29T04:03:36;100804.75;;;22.34;29.91
74678;BME280;67324;56.326;43.982;2023-01-29T04:06:26;100802.13;;;22.34;29.91
74678;BME280;67324;56.326;43.982;2023-01-29T04:09:14;100795.19;;;22.33;29.90
74678;BME280;67324;56.326;43.982;2023-01-29T04:11:46;100790.59;;;22.35;29.95
74678;BME280;67324;56.326;43.982;2023-01-29T04:14:15;100789.91;;;22.33;29.96
74678;BME280;67324;56.326;43.982;2023-01-29T04:16:46;100786.31;;;22.34;29.97
74678;BME280;67324;56.326;43.982;2023-01-29T04:19:18;100784.63;;;22.33;29.96
74678;BME280;67324;56.326;43.982;2023-01-29T04:21:46;100784.50;;;22.34;29.96
74678;BME280;67324;56.326;43.982;2023-01-29T04:24:14;100790.59;;;22.35;29.99
74678;BME280;67324;56.326;43.982;2023-01-29T04:27:02;100785.31;;;22.35;29.98
74678;BME280;67324;56.326;43.982;2023-01-29T04:29:39;100780.06;;;22.35;30.00
74678;BME280;67324;56.326;43.982;2023-01-29T04:32:25;100778.22;;;22.35;29.92
74678;BME280;67324;56.326;43.982;2023-01-29T04:34:58;100768.53;;;22.36;29.96
74678;BME280;67324;56.326;43.982;2023-01-29T04:37:35;100761.59;;;22.35;29.88
74678;BME280;67324;56.326;43.982;2023-01-29T04:40:47;100765.06;;;22.35;29.94
74678;BME280;67324;56.326;43.982;2023-01-29T04:46:18;100755.50;;;22.34;29.81
74678;BME280;67324;56.326;43.982;2023-01-29T04:55:03;100744.97;;;22.34;29.97
74678;BME280;67324;56.326;43.982;2023-01-29T05:00:33;100743.97;;;22.35;29.96
74678;BME280;67324;56.326;43.982;2023-01-29T05:03:00;100752.88;;;22.34;29.94
74678;BME280;67324;56.326;43.982;2023-01-29T05:05:27;100745.78;;;22.35;29.92
74678;BME280;67324;56.326;43.982;2023-01-29T05:07:56;100749.25;;;22.35;30.04
74678;BME280;67324;56.326;43.982;2023-01-29T05:10:23;100747.47;;;22.36;29.97
74678;BME280;67324;56.326;43.982;2023-01-29T05:13:10;100751.88;;;22.35;29.96
74678;BME280;67324;56.326;43.982;2023-01-29T05:15:45;100749.25;;;22.35;29.94
74678;BME280;67324;56.326;43.982;2023-01-29T05:18:13;100754.50;;;22.35;29.99
74678;BME280;67324;56.326;43.982;2023-01-29T05:20:40;100748.44;;;22.35;29.95
74678;BME280;67324;56.326;43.982;2023-01-29T05:23:19;100748.28;;;22.36;29.97
74678;BME280;67324;56.326;43.982;2023-01-29T05:25:46;100750.09;;;22.36;29.96
74678;BME280;67324;56.326;43.982;2023-01-29T05:28:12;100741.34;;;22.35;29.98
74678;BME280;67324;56.326;43.982;2023-01-29T05:30:45;100740.38;;;22.36;29.95
74678;BME280;67324;56.326;43.982;2023-01-29T05:33:20;100747.47;;;22.36;29.98
74678;BME280;67324;56.326;43.982;2023-01-29T05:36:05;100745.66;;;22.36;30.04
74678;BME280;67324;56.326;43.982;2023-01-29T05:38:30;100747.28;;;22.38;29.95
74678;BME280;67324;56.326;43.982;2023-01-29T05:40:57;100743.97;;;22.35;29.97
74678;BME280;67324;56.326;43.982;2023-01-29T05:43:24;100749.09;;;22.37;30.00
74678;BME280;67324;56.326;43.982;2023-01-29T05:45:55;100740.19;;;22.38;30.02
74678;BME280;67324;56.326;43.982;2023-01-29T05:48:22;100734.94;;;22.38;30.01
74678;BME280;67324;56.326;43.982;2023-01-29T05:50:48;100732.47;;;22.36;29.95
74678;BME280;67324;56.326;43.982;2023-01-29T05:53:15;100734.09;;;22.38;29.96
74678;BME280;67324;56.326;43.982;2023-01-29T05:55:45;100733.28;;;22.37;30.06
74678;BME280;67324;56.326;43.982;2023-01-29T05:58:12;100721.09;;;22.36;29.94
74678;BME280;67324;56.326;43.982;2023-01-29T06:00:38;100723.75;;;22.36;29.93
74678;BME280;67324;56.326;43.982;2023-01-29T06:03:04;100727.03;;;22.38;30.00
74678;BME280;67324;56.326;43.982;2023-01-29T06:05:30;100726.19;;;22.38;29.95
74678;BME280;67324;56.326;43.982;2023-01-29T06:07:56;100732.28;;;22.38;29.95
74678;BME280;67324;56.326;43.982;2023-01-29T06:10:22;100726.19;;;22.38;29.92
74678;BME280;67324;56.326;43.982;2023-01-29T06:12:48;100729.66;;;22.38;29.97
74678;BME280;67324;56.326;43.982;2023-01-29T06:15:14;100725.25;;;22.39;29.93
74678;BME280;67324;56.326;43.982;2023-01-29T06:17:41;100720.09;;;22.37;29.94
74678;BME280;67324;56.326;43.982;2023-01-29T06:20:25;100715.66;;;22.38;29.84
74678;BME280;67324;56.326;43.982;2023-01-29T06:22:51;100712.06;;;22.39;29.80
74678;BME280;67324;56.326;43.982;2023-01-29T06:25:17;100709.56;;;22.37;29.96
74678;BME280;67324;56.326;43.982;2023-01-29T06:27:43;100715.66;;;22.38;29.96
74678;BME280;67324;56.326;43.982;2023-01-29T06:30:09;100718.28;;;22.38;29.88
74678;BME280;67324;56.326;43.982;2023-01-29T06:32:35;100705.13;;;22.38;29.94
74678;BME280;67324;56.326;43.982;2023-01-29T06:35:00;100700.66;;;22.38;29.96
74678;BME280;67324;56.326;43.982;2023-01-29T06:37:28;100693.59;;;22.39;29.93
74678;BME280;67324;56.326;43.982;2023-01-29T06:39:54;100704.16;;;22.39;29.96
74678;BME280;67324;56.326;43.982;2023-01-29T06:42:19;100690.97;;;22.39;29.95
74678;BME280;67324;56.326;43.982;2023-01-29T06:44:56;100691.94;;;22.38;30.02
74678;BME280;67324;56.326;43.982;2023-01-29T06:47:22;100691.94;;;22.38;30.04
74678;BME280;67324;56.326;43.982;2023-01-29T06:49:49;100688.47;;;22.37;29.94
74678;BME280;67324;56.326;43.982;2023-01-29T06:52:15;100691.94;;;22.38;29.98
74678;BME280;67324;56.326;43.982;2023-01-29T06:54:41;100695.41;;;22.38;29.89
74678;BME280;67324;56.326;43.982;2023-01-29T06:57:06;100705.78;;;22.40;29.99
74678;BME280;67324;56.326;43.982;2023-01-29T06:59:32;100697.22;;;22.38;30.01
74678;BME280;67324;56.326;43.982;2023-01-29T07:01:58;100697.06;;;22.39;29.97
74678;BME280;67324;56.326;43.982;2023-01-29T07:04:24;100698.88;;;22.39;29.95
74678;BME280;67324;56.326;43.982;2023-01-29T07:06:50;100692.94;;;22.36;29.92
74678;BME280;67324;56.326;43.982;2023-01-29T07:09:16;100690.97;;;22.39;30.02
74678;BME280;67324;56.326;43.982;2023-01-29T07:11:42;100685.69;;;22.39;30.01
74678;BME280;67324;56.326;43.982;2023-01-29T07:14:08;100702.34;;;22.39;30.01
74678;BME280;67324;56.326;43.982;2023-01-29T07:16:33;100690.13;;;22.38;29.96
74678;BME280;67324;56.326;43.982;2023-01-29T07:18:59;100690.13;;;22.38;29.95
74678;BME280;67324;56.326;43.982;2023-01-29T07:21:25;100681.41;;;22.38;30.00
74678;BME280;67324;56.326;43.982;2023-01-29T07:23:51;100676.94;;;22.38;29.91
74678;BME280;67324;56.326;43.982;2023-01-29T07:26:17;100672.53;;;22.39;29.89
74678;BME280;67324;56.326;43.982;2023-01-29T07:28:43;100677.13;;;22.36;29.97
74678;BME280;67324;56.326;43.982;2023-01-29T07:31:11;100684.84;;;22.38;29.95
74678;BME280;67324;56.326;43.982;2023-01-29T07:33:37;100684.84;;;22.38;29.94
74678;BME280;67324;56.326;43.982;2023-01-29T07:36:22;100692.75;;;22.38;29.94
74678;BME280;67324;56.326;43.982;2023-01-29T07:38:49;100689.31;;;22.38;29.95
74678;BME280;67324;56.326;43.982;2023-01-29T07:41:15;100686.53;;;22.39;29.80
74678;BME280;67324;56.326;43.982;2023-01-29T07:43:44;100688.47;;;22.37;29.98
74678;BME280;67324;56.326;43.982;2023-01-29T07:46:10;100685.69;;;22.39;29.97
74678;BME280;67324;56.326;43.982;2023-01-29T07:48:36;100678.94;;;22.36;30.01
74678;BME280;67324;56.326;43.982;2023-01-29T07:51:01;100677.78;;;22.39;30.01
74678;BME280;67324;56.326;43.982;2023-01-29T07:53:28;100674.16;;;22.40;29.97
74678;BME280;67324;56.326;43.982;2023-01-29T07:55:54;100664.63;;;22.39;30.01
74678;BME280;67324;56.326;43.982;2023-01-29T07:58:20;100672.53;;;22.39;29.91
74678;BME280;67324;56.326;43.982;2023-01-29T08:00:45;100664.63;;;22.39;29.94
74678;BME280;67324;56.326;43.982;2023-01-29T08:03:14;100664.63;;;22.39;30.09
74678;BME280;67324;56.326;43.982;2023-01-29T08:05:41;100660.16;;;22.39;29.93
74678;BME280;67324;56.326;43.982;2023-01-29T08:08:07;100663.63;;;22.40;29.93
74678;BME280;67324;56.326;43.982;2023-01-29T08:10:34;100657.53;;;22.39;30.09
74678;BME280;67324;56.326;43.982;2023-01-29T08:13:19;100657.53;;;22.39;29.95
74678;BME280;67324;56.326;43.982;2023-01-29T08:15:45;100654.91;;;22.39;29.91
74678;BME280;67324;56.326;43.982;2023-01-29T08:18:12;100647.94;;;22.38;29.91
74678;BME280;67324;56.326;43.982;2023-01-29T08:20:38;100640.91;;;22.39;30.00
74678;BME280;67324;56.326;43.982;2023-01-29T08:23:05;100639.91;;;22.40;29.92
74678;BME280;67324;56.326;43.982;2023-01-29T08:25:32;100634.78;;;22.38;29.99
74678;BME280;67324;56.326;43.982;2023-01-29T08:27:58;100639.09;;;22.39;30.04
74678;BME280;67324;56.326;43.982;2023-01-29T08:30:26;100641.72;;;22.39;29.96
74678;BME280;67324;56.326;43.982;2023-01-29T08:32:53;100631.19;;;22.39;29.91
74678;BME280;67324;56.326;43.982;2023-01-29T08:35:19;100631.19;;;22.39;29.86
74678;BME280;67324;56.326;43.982;2023-01-29T08:37:52;100630.34;;;22.39;30.02
74678;BME280;67324;56.326;43.982;2023-01-29T08:40:18;100622.44;;;22.39;29.93
74678;BME280;67324;56.326;43.982;2023-01-29T08:42:44;100611.91;;;22.39;29.92
74678;BME280;67324;56.326;43.982;2023-01-29T08:45:10;100618.81;;;22.40;29.82
74678;BME280;67324;56.326;43.982;2023-01-29T08:47:36;100618.00;;;22.39;30.05
74678;BME280;67324;56.326;43.982;2023-01-29T08:50:02;100607.47;;;22.39;29.94
74678;BME280;67324;56.326;43.982;2023-01-29T08:52:46;100608.28;;;22.40;29.94
74678;BME280;67324;56.326;43.982;2023-01-29T08:55:12;100615.38;;;22.39;29.91
74678;BME280;67324;56.326;43.982;2023-01-29T08:57:38;100606.63;;;22.39;29.95
74678;BME280;67324;56.326;43.982;2023-01-29T09:00:22;100612.53;;;22.41;29.97
74678;BME280;67324;56.326;43.982;2023-01-29T09:02:48;100596.72;;;22.41;30.02
74678;BME280;67324;56.326;43.982;2023-01-29T09:05:14;100600.38;;;22.40;29.96
74678;BME280;67324;56.326;43.982;2023-01-29T09:07:40;100604.00;;;22.39;29.96
74678;BME280;67324;56.326;43.982;2023-01-29T09:10:07;100600.38;;;22.40;29.94
74678;BME280;67324;56.326;43.982;2023-01-29T09:12:33;100595.09;;;22.40;29.95
74678;BME280;67324;56.326;43.982;2023-01-29T09:14:59;100598.56;;;22.40;29.95
74678;BME280;67324;56.326;43.982;2023-01-29T09:17:25;100586.38;;;22.39;30.02
74678;BME280;67324;56.326;43.982;2023-01-29T09:19:51;100578.28;;;22.41;29.96
74678;BME280;67324;56.326;43.982;2023-01-29T09:22:18;100585.38;;;22.40;29.88
74678;BME280;67324;56.326;43.982;2023-01-29T09:24:44;100582.72;;;22.40;29.96
74678;BME280;67324;56.326;43.982;2023-01-29T09:27:10;100588.81;;;22.41;29.94
74678;BME280;67324;56.326;43.982;2023-01-29T09:29:36;100575.66;;;22.41;30.00
74678;BME280;67324;56.326;43.982;2023-01-29T09:32:03;100581.78;;;22.41;29.95
74678;BME280;67324;56.326;43.982;2023-01-29T09:34:29;100575.66;;;22.41;29.87
74678;BME280;67324;56.326;43.982;2023-01-29T09:36:55;100574.00;;;22.40;29.96
74678;BME280;67324;56.326;43.982;2023-01-29T09:39:21;100569.56;;;22.40;29.96
74678;BME280;67324;56.326;43.982;2023-01-29T09:44:22;100575.66;;;22.41;30.01
74678;BME280;67324;56.326;43.982;2023-01-29T09:46:50;100559.84;;;22.41;30.01
74678;BME280;67324;56.326;43.982;2023-01-29T09:49:35;100566.09;;;22.40;29.91
74678;BME280;67324;56.326;43.982;2023-01-29T09:52:24;100559.00;;;22.40;29.90
74678;BME280;67324;56.326;43.982;2023-01-29T09:58:12;100552.94;;;22.40;29.97
74678;BME280;67324;56.326;43.982;2023-01-29T10:06:27;100542.72;;;22.36;30.03
74678;BME280;67324;56.326;43.982;2023-01-29T10:15:21;100532.00;;;22.38;29.79
74678;BME280;67324;56.326;43.982;2023-01-29T10:23:31;100525.91;;;22.38;29.96
74678;BME280;67324;56.326;43.982;2023-01-29T10:25:58;100518.00;;;22.38;29.97
74678;BME280;67324;56.326;43.982;2023-01-29T10:28:45;100502.19;;;22.38;29.95
74678;BME280;67324;56.326;43.982;2023-01-29T10:31:34;100501.22;;;22.39;29.99
74678;BME280;67324;56.326;43.982;2023-01-29T10:36:45;100492.47;;;22.38;29.97
74678;BME280;67324;56.326;43.982;2023-01-29T10:39:16;100491.50;;;22.39;29.97
74678;BME280;67324;56.326;43.982;2023-01-29T10:47:33;100494.94;;;22.40;29.96
74678;BME280;67324;56.326;43.982;2023-01-29T10:50:11;100488.03;;;22.39;29.91
74678;BME280;67324;56.326;43.982;2023-01-29T11:01:28;100485.22;;;22.40;29.97
74678;BME280;67324;56.326;43.982;2023-01-29T11:04:00;100493.13;;;22.40;29.93
74678;BME280;67324;56.326;43.982;2023-01-29T11:06:33;100480.13;;;22.39;29.94
74678;BME280;67324;56.326;43.982;2023-01-29T11:14:26;100479.13;;;22.40;29.95
74678;BME280;67324;56.326;43.982;2023-01-29T11:16:53;100483.72;;;22.38;30.01
74678;BME280;67324;56.326;43.982;2023-01-29T11:19:37;100474.84;;;22.39;29.91
74678;BME280;67324;56.326;43.982;2023-01-29T11:22:03;100479.13;;;22.40;30.09
74678;BME280;67324;56.326;43.982;2023-01-29T11:24:29;100475.69;;;22.39;29.96
74678;BME280;67324;56.326;43.982;2023-01-29T11:26:59;100479.13;;;22.40;29.95
74678;BME280;67324;56.326;43.982;2023-01-29T11:29:44;100465.28;;;22.38;30.02
74678;BME280;67324;56.326;43.982;2023-01-29T11:35:19;100459.88;;;22.39;30.03
74678;BME280;67324;56.326;43.982;2023-01-29T11:37:44;100461.69;;;22.39;29.87
74678;BME280;67324;56.326;43.982;2023-01-29T11:42:44;100462.50;;;22.39;29.92
74678;BME280;67324;56.326;43.982;2023-01-29T11:45:27;100451.97;;;22.39;29.95
74678;BME280;67324;56.326;43.982;2023-01-29T11:47:55;100458.03;;;22.40;29.96
74678;BME280;67324;56.326;43.982;2023-01-29T11:50:27;100450.97;;;22.40;29.93
74678;BME280;67324;56.326;43.982;2023-01-29T11:52:53;100447.50;;;22.40;29.91
74678;BME280;67324;56.326;43.982;2023-01-29T11:55:22;100432.50;;;22.40;29.90
74678;BME280;67324;56.326;43.982;2023-01-29T12:01:04;100436.28;;;22.38;29.93
74678;BME280;67324;56.326;43.982;2023-01-29T12:03:34;100440.59;;;22.39;30.01
74678;BME280;67324;56.326;43.982;2023-01-29T12:06:02;100433.50;;;22.39;30.02
74678;BME280;67324;56.326;43.982;2023-01-29T12:08:37;100435.31;;;22.39;29.95
74678;BME280;67324;56.326;43.982;2023-01-29T12:11:26;100431.84;;;22.38;29.91
74678;BME280;67324;56.326;43.982;2023-01-29T12:13:53;100437.97;;;22.39;29.87
74678;BME280;67324;56.326;43.982;2023-01-29T12:22:38;100444.06;;;22.39;29.95
74678;BME280;67324;56.326;43.982;2023-01-29T12:37:01;100438.94;;;22.38;29.93
74678;BME280;67324;56.326;43.982;2023-01-29T12:39:35;100440.75;;;22.37;30.02
74678;BME280;67324;56.326;43.982;2023-01-29T12:42:29;100437.13;;;22.38;29.94
74678;BME280;67324;56.326;43.982;2023-01-29T12:45:00;100448.66;;;22.37;29.96
74678;BME280;67324;56.326;43.982;2023-01-29T12:49:57;100440.59;;;22.39;29.97
74678;BME280;67324;56.326;43.982;2023-01-29T12:52:39;100435.31;;;22.39;29.97
74678;BME280;67324;56.326;43.982;2023-01-29T12:55:25;100437.13;;;22.38;29.91
74678;BME280;67324;56.326;43.982;2023-01-29T12:57:59;100433.66;;;22.38;29.98
74678;BME280;67324;56.326;43.982;2023-01-29T13:00:28;100428.38;;;22.38;29.84
74678;BME280;67324;56.326;43.982;2023-01-29T13:05:35;100418.66;;;22.38;30.00
74678;BME280;67324;56.326;43.982;2023-01-29T13:08:07;100429.22;;;22.38;29.88
74678;BME280;67324;56.326;43.982;2023-01-29T13:10:37;100414.25;;;22.39;29.92
74678;BME280;67324;56.326;43.982;2023-01-29T13:13:22;100416.03;;;22.38;29.82
74678;BME280;67324;56.326;43.982;2023-01-29T13:15:51;100413.41;;;22.38;29.84
74678;BME280;67324;56.326;43.982;2023-01-29T13:18:46;100420.47;;;22.38;29.89
74678;BME280;67324;56.326;43.982;2023-01-29T13:21:17;100418.66;;;22.38;29.91
74678;BME280;67324;56.326;43.982;2023-01-29T13:23:50;100409.94;;;22.38;29.94
74678;BME280;67324;56.326;43.982;2023-01-29T13:26:18;100417.03;;;22.37;29.86
74678;BME280;67324;56.326;43.982;2023-01-29T13:28:45;100412.56;;;22.38;29.83
74678;BME280;67324;56.326;43.982;2023-01-29T13:31:26;100405.50;;;22.38;29.85
74678;BME280;67324;56.326;43.982;2023-01-29T13:34:06;100404.66;;;22.38;30.02
74678;BME280;67324;56.326;43.982;2023-01-29T13:36:34;100402.03;;;22.38;29.96
74678;BME280;67324;56.326;43.982;2023-01-29T13:39:04;100403.84;;;22.37;29.80
74678;BME280;67324;56.326;43.982;2023-01-29T13:41:34;100409.13;;;22.37;29.93
74678;BME280;67324;56.326;43.982;2023-01-29T13:44:01;100403.03;;;22.36;29.89
74678;BME280;67324;56.326;43.982;2023-01-29T13:46:28;100405.66;;;22.36;29.88
74678;BME280;67324;56.326;43.982;2023-01-29T13:48:54;100405.66;;;22.36;29.88
74678;BME280;67324;56.326;43.982;2023-01-29T13:51:34;100391.50;;;22.38;29.80
74678;BME280;67324;56.326;43.982;2023-01-29T13:54:04;100398.59;;;22.37;29.93
74678;BME280;67324;56.326;43.982;2023-01-29T13:58:59;100393.47;;;22.35;29.90
74678;BME280;67324;56.326;43.982;2023-01-29T14:06:48;100394.13;;;22.38;29.98
74678;BME280;67324;56.326;43.982;2023-01-29T14:17:16;100410.94;;;22.36;29.94
74678;BME280;67324;56.326;43.982;2023-01-29T14:19:48;100399.41;;;22.38;29.79
74678;BME280;67324;56.326;43.982;2023-01-29T14:22:20;100401.22;;;22.37;29.87
74678;BME280;67324;56.326;43.982;2023-01-29T14:24:47;100402.03;;;22.38;29.96
74678;BME280;67324;56.326;43.982;2023-01-29T14:27:19;100405.66;;;22.36;29.94
74678;BME280;67324;56.326;43.982;2023-01-29T14:29:46;100402.84;;;22.38;29.94
74678;BME280;67324;56.326;43.982;2023-01-29T14:32:30;100405.00;;;22.34;29.89
74678;BME280;67324;56.326;43.982;2023-01-29T14:35:03;100398.72;;;22.35;29.93
74678;BME280;67324;56.326;43.982;2023-01-29T14:37:35;100394.31;;;22.36;29.90
74678;BME280;67324;56.326;43.982;2023-01-29T14:43:07;100382.09;;;22.35;29.86
74678;BME280;67324;56.326;43.982;2023-01-29T14:45:35;100371.56;;;22.35;29.93
74678;BME280;67324;56.326;43.982;2023-01-29T14:50:38;100372.38;;;22.35;29.97
74678;BME280;67324;56.326;43.982;2023-01-29T15:01:38;100356.56;;;22.35;30.03
74678;BME280;67324;56.326;43.982;2023-01-29T15:04:37;100362.69;;;22.36;29.79
74678;BME280;67324;56.326;43.982;2023-01-29T15:07:19;100360.06;;;22.36;29.82
74678;BME280;67324;56.326;43.982;2023-01-29T15:09:53;100358.56;;;22.33;29.89
74678;BME280;67324;56.326;43.982;2023-01-29T15:15:37;100365.47;;;22.34;29.90
74678;BME280;67324;56.326;43.982;2023-01-29T15:21:13;100355.75;;;22.35;29.92
74678;BME280;67324;56.326;43.982;2023-01-29T15:23:40;100355.75;;;22.35;29.92
74678;BME280;67324;56.326;43.982;2023-01-29T15:26:08;100361.03;;;22.35;29.90
74678;BME280;67324;56.326;43.982;2023-01-29T15:28:37;100361.84;;;22.35;29.99
74678;BME280;67324;56.326;43.982;2023-01-29T15:31:07;100360.06;;;22.36;29.89
74678;BME280;67324;56.326;43.982;2023-01-29T15:33:40;100366.13;;;22.36;29.86
74678;BME280;67324;56.326;43.982;2023-01-29T15:36:19;100368.94;;;22.35;29.73
74678;BME280;67324;56.326;43.982;2023-01-29T15:38:45;100363.66;;;22.35;29.89
74678;BME280;67324;56.326;43.982;2023-01-29T15:41:20;100368.78;;;22.36;29.75